createdAt,value
2022-09-09T00:08:32.036Z,100591.97
2022-09-09T00:19:06.437Z,100588.06
2022-09-09T00:29:43.787Z,100581.41
2022-09-09T00:40:20.396Z,100591.78
2022-09-09T00:50:44.931Z,100584.69
2022-09-09T01:01:11.112Z,100579.91
2022-09-09T01:11:54.270Z,100583.97
2022-09-09T01:22:51.407Z,100578.03
2022-09-09T01:33:16.633Z,100577.59
2022-09-09T01:43:38.380Z,100566.72
2022-09-09T01:54:00.050Z,100557.25
2022-09-09T02:04:41.903Z,100551.50
2022-09-09T02:15:17.353Z,100553.53
2022-09-09T02:25:41.567Z,100550.75
2022-09-09T02:36:07.676Z,100544.63
2022-09-09T02:46:56.478Z,100547.97
2022-09-09T02:57:28.827Z,100547.97
2022-09-09T03:07:51.493Z,100556.66
2022-09-09T03:18:12.962Z,100556.94
2022-09-09T03:28:34.514Z,100561.66
2022-09-09T03:38:56.559Z,100563.69
2022-09-09T03:49:18.007Z,100565.63
2022-09-09T03:59:39.345Z,100580.28
2022-09-09T04:10:00.931Z,100582.44
2022-09-09T04:20:23.156Z,100585.41
2022-09-09T04:30:45.103Z,100586.53
2022-09-09T04:41:07.110Z,100585.16
2022-09-09T04:51:29.250Z,100591.47
2022-09-09T05:01:51.327Z,100599.69
2022-09-09T05:12:12.819Z,100609.03
2022-09-09T05:22:34.818Z,100616.06
2022-09-09T05:32:59.377Z,100622.16
2022-09-09T05:43:21.413Z,100621.34
2022-09-09T05:53:43.813Z,100631.41
2022-09-09T06:04:05.337Z,100631.72
2022-09-09T06:14:27.962Z,100638.88
2022-09-09T06:24:49.410Z,100628.56
2022-09-09T06:35:11.798Z,100624.47
2022-09-09T06:45:33.351Z,100626.41
2022-09-09T06:55:55.715Z,100626.28
2022-09-09T07:06:20.532Z,100628.97
2022-09-09T07:16:46.466Z,100627.84
2022-09-09T07:27:07.935Z,100640.88
2022-09-09T07:37:29.292Z,100642.09
2022-09-09T07:47:50.857Z,100647.72
2022-09-09T07:58:12.297Z,100655.16
2022-09-09T08:08:34.869Z,100656.25
2022-09-09T08:18:56.354Z,100649.25
2022-09-09T08:29:18.345Z,100653.13
2022-09-09T08:39:39.842Z,100653.53
2022-09-09T08:50:16.557Z,100652.16
2022-09-09T09:00:48.090Z,100664.13
2022-09-09T09:11:09.622Z,100678.44
2022-09-09T09:21:45.905Z,100689.97
2022-09-09T09:32:15.054Z,100672.19
2022-09-09T09:42:36.694Z,100684.91
2022-09-09T09:53:03.719Z,100674.88
2022-09-09T10:03:31.528Z,100672.63
2022-09-09T10:14:18.413Z,100669.19
2022-09-09T10:25:12.031Z,100667.53
2022-09-09T10:35:43.353Z,100666.25
2022-09-09T10:46:20.486Z,100674.84
2022-09-09T10:56:46.438Z,100668.06
2022-09-09T11:07:12.369Z,100667.16
2022-09-09T11:17:57.655Z,100681.25
2022-09-09T11:28:45.592Z,100672.81
2022-09-09T11:39:12.946Z,100672.97
2022-09-09T11:49:44.120Z,100663.38
2022-09-09T12:00:07.096Z,100665.47
2022-09-09T12:10:33.564Z,100654.94
2022-09-09T12:21:08.735Z,100658.50
2022-09-09T12:31:45.133Z,100671.59
2022-09-09T12:42:20.369Z,100669.41
2022-09-09T12:52:42.001Z,100657.94
2022-09-09T13:03:17.855Z,100644.84
2022-09-09T13:13:41.656Z,100640.41
2022-09-09T13:24:04.344Z,100637.78
2022-09-09T13:34:35.063Z,100661.84
2022-09-09T13:44:58.952Z,100661.44
2022-09-09T13:55:24.953Z,100666.81
2022-09-09T14:05:46.751Z,100665.97
2022-09-09T14:16:08.312Z,100660.06
2022-09-09T14:26:30.884Z,100647.34
2022-09-09T14:36:52.461Z,100650.41
2022-09-09T14:47:13.925Z,100648.03
2022-09-09T14:57:36.703Z,100621.31
2022-09-09T15:07:59.551Z,100636.50
2022-09-09T15:18:22.208Z,100643.91
2022-09-09T15:28:45.470Z,100639.78
2022-09-09T15:39:10.843Z,100632.75
2022-09-09T15:49:32.314Z,100627.31
2022-09-09T15:59:53.771Z,100624.22
2022-09-09T16:10:15.313Z,100640.72
2022-09-09T16:20:36.777Z,100654.41
2022-09-09T16:30:59.335Z,100644.31
2022-09-09T16:41:21.073Z,100655.09
2022-09-09T16:51:48.411Z,100668.84
2022-09-09T17:02:09.991Z,100720.69
2022-09-09T17:12:31.611Z,100726.03
2022-09-09T17:22:53.075Z,100720.84
2022-09-09T17:33:14.509Z,100702.66
2022-09-09T17:43:39.287Z,100712.09
2022-09-09T17:54:11.090Z,100720.50
2022-09-09T18:04:32.606Z,100720.84
2022-09-09T18:14:54.180Z,100727.50
2022-09-09T18:25:15.760Z,100725.34
2022-09-09T18:35:37.540Z,100727.16
2022-09-09T18:46:04.480Z,100730.34
2022-09-09T18:56:26.505Z,100733.66
2022-09-09T19:06:49.329Z,100732.69
2022-09-09T19:17:10.825Z,100745.13
2022-09-09T19:27:32.664Z,100753.59
2022-09-09T19:37:54.600Z,100763.94
2022-09-09T19:48:16.859Z,100775.47
2022-09-09T19:58:40.379Z,100770.47
2022-09-09T20:09:02.906Z,100761.31
2022-09-09T20:19:24.390Z,100767.66
2022-09-09T20:29:47.134Z,100760.47
2022-09-09T20:40:08.996Z,100752.69
2022-09-09T20:50:31.526Z,100765.16
2022-09-09T21:00:53.618Z,100765.81
2022-09-09T21:11:17.145Z,100779.47
2022-09-09T21:21:39.199Z,100785.03
2022-09-09T21:32:03.277Z,100785.28
2022-09-09T21:42:24.742Z,100789.41
2022-09-09T21:52:46.217Z,100786.91
2022-09-09T22:03:08.536Z,100791.66
2022-09-09T22:13:30.045Z,100792.50
2022-09-09T22:23:56.893Z,100783.13
2022-09-09T22:34:19.304Z,100791.59
2022-09-09T22:44:41.722Z,100798.19
2022-09-09T22:55:03.696Z,100806.09
2022-09-09T23:05:27.454Z,100811.88
2022-09-09T23:15:49.697Z,100805.78
2022-09-09T23:26:13.688Z,100811.03
2022-09-09T23:36:35.258Z,100811.84
2022-09-09T23:46:56.724Z,100806.06
2022-09-09T23:57:18.556Z,100803.91
